Time;durP1;ratioP1;P1;durP2;ratioP2;P2;SDS_P1;SDS_P2;PMS_P1;PMS_P2;Temp;Humidity;BMP_temperature;BMP_pressure;BME280_temperature;BME280_humidity;BME280_pressure;Samples;Min_cycle;Max_cycle;Signal;HPM_P1;HPM_P2
2023/07/09 00:01:18;;;;;;;6.93;5.78;;;27.40;73.70;;;;;;5052636;28;20048;-74
2023/07/09 00:03:44;;;;;;;7.15;5.20;;;27.40;73.70;;;;;;5052363;28;20055;-74
2023/07/09 00:06:12;;;;;;;8.23;5.40;;;27.40;73.60;;;;;;5052903;28;20041;-75
2023/07/09 00:08:42;;;;;;;8.68;5.63;;;27.40;73.50;;;;;;5052496;28;20088;-74
2023/07/09 00:11:07;;;;;;;10.52;5.88;;;27.40;73.60;;;;;;5052925;28;20040;-74
2023/07/09 00:13:33;;;;;;;7.70;5.07;;;27.40;73.40;;;;;;5052467;28;20033;-74
2023/07/09 00:16:02;;;;;;;10.23;5.22;;;27.30;73.30;;;;;;5052712;28;20098;-74
2023/07/09 00:18:28;;;;;;;9.73;5.40;;;27.30;73.10;;;;;;5055000;28;20025;-74
2023/07/09 00:20:53;;;;;;;7.97;5.20;;;27.30;73.20;;;;;;5056570;28;20043;-74
2023/07/09 00:23:19;;;;;;;8.88;5.18;;;27.20;73.20;;;;;;5056304;28;20053;-74
2023/07/09 00:25:45;;;;;;;9.23;5.82;;;27.30;73.10;;;;;;5039087;28;20033;-74
2023/07/09 00:28:17;;;;;;;6.75;5.43;;;27.30;73.40;;;;;;5056830;28;20358;-74
2023/07/09 00:30:47;;;;;;;7.55;5.05;;;27.30;73.50;;;;;;5056085;28;20067;-74
2023/07/09 00:33:15;;;;;;;7.25;4.78;;;27.30;73.50;;;;;;5056809;28;20112;-74
2023/07/09 00:35:50;;;;;;;8.00;5.35;;;27.20;73.30;;;;;;5056793;28;20029;-74
2023/07/09 00:38:22;;;;;;;9.65;5.25;;;27.20;73.40;;;;;;5056855;28;20040;-74
2023/07/09 00:41:04;;;;;;;9.02;5.65;;;27.10;73.50;;;;;;5056702;28;20029;-75
2023/07/09 00:43:35;;;;;;;7.00;5.13;;;27.10;73.30;;;;;;5056134;28;20028;-74
2023/07/09 00:46:19;;;;;;;7.05;5.25;;;27.20;73.30;;;;;;5056607;28;20036;-74
2023/07/09 00:48:53;;;;;;;6.32;4.75;;;27.20;73.10;;;;;;5056314;28;20535;-73
2023/07/09 00:51:21;;;;;;;6.18;4.88;;;27.20;73.10;;;;;;5056345;28;20075;-75
2023/07/09 00:53:51;;;;;;;7.88;4.95;;;27.20;73.20;;;;;;5056466;28;20115;-74
2023/07/09 00:56:25;;;;;;;5.55;4.82;;;27.20;73.30;;;;;;5056055;28;20032;-74
2023/07/09 00:58:53;;;;;;;8.13;5.07;;;27.10;73.60;;;;;;5056364;28;20032;-74
2023/07/09 01:01:20;;;;;;;7.65;5.20;;;27.10;73.30;;;;;;5055763;28;20070;-74
2023/07/09 01:03:49;;;;;;;8.15;4.93;;;27.10;73.10;;;;;;5056209;28;20036;-74
2023/07/09 01:06:20;;;;;;;5.38;4.40;;;27.20;73.10;;;;;;5056184;28;20025;-74
2023/07/09 01:08:45;;;;;;;7.70;4.30;;;27.20;72.80;;;;;;5055665;28;20029;-75
2023/07/09 01:11:21;;;;;;;6.05;4.38;;;27.20;73.10;;;;;;5055863;28;20501;-74
2023/07/09 01:13:52;;;;;;;8.05;5.18;;;27.20;72.80;;;;;;5055797;28;20024;-74
2023/07/09 01:16:24;;;;;;;6.68;4.88;;;27.20;72.70;;;;;;5055918;28;20060;-74
2023/07/09 01:18:51;;;;;;;8.38;5.53;;;27.10;72.70;;;;;;5038459;28;20166;-75
2023/07/09 01:21:17;;;;;;;7.93;5.47;;;27.00;73.00;;;;;;5055573;28;20037;-74
2023/07/09 01:23:48;;;;;;;7.68;5.13;;;27.00;73.20;;;;;;5055385;28;20382;-74
2023/07/09 01:26:17;;;;;;;4.90;4.20;;;27.00;72.70;;;;;;5037612;28;20060;-74
2023/07/09 01:28:45;;;;;;;8.00;5.07;;;27.10;72.30;;;;;;5054977;28;20128;-74
2023/07/09 01:31:13;;;;;;;7.55;5.07;;;27.10;72.10;;;;;;5054427;28;20477;-74
2023/07/09 01:33:41;;;;;;;5.82;4.25;;;27.10;72.20;;;;;;5055383;28;20098;-74
2023/07/09 01:36:08;;;;;;;5.38;4.38;;;27.10;71.80;;;;;;5037643;28;20055;-74
2023/07/09 01:38:34;;;;;;;6.25;4.20;;;27.20;72.30;;;;;;5055730;28;20045;-74
2023/07/09 01:41:00;;;;;;;6.95;4.30;;;27.20;71.70;;;;;;5055818;28;20075;-74
2023/07/09 01:43:26;;;;;;;6.28;4.18;;;27.20;71.60;;;;;;5055365;28;20083;-74
2023/07/09 01:45:52;;;;;;;5.15;3.78;;;27.20;71.30;;;;;;5055700;28;20377;-73
2023/07/09 01:48:20;;;;;;;8.45;4.45;;;27.20;71.20;;;;;;5055065;28;20025;-74
2023/07/09 01:50:49;;;;;;;6.80;4.45;;;27.30;71.00;;;;;;5054921;28;20036;-74
2023/07/09 01:53:16;;;;;;;4.53;3.63;;;27.20;70.70;;;;;;5055295;28;20025;-74
2023/07/09 01:55:42;;;;;;;5.88;4.55;;;27.30;70.70;;;;;;5055332;28;20108;-75
2023/07/09 01:58:08;;;;;;;6.50;4.60;;;27.30;70.50;;;;;;5055188;28;20529;-74
2023/07/09 02:00:34;;;;;;;7.20;4.35;;;27.30;70.80;;;;;;5037319;28;20033;-74
2023/07/09 02:03:02;;;;;;;5.93;4.47;;;27.20;71.00;;;;;;5055072;28;20119;-74
2023/07/09 02:05:30;;;;;;;7.47;5.28;;;27.20;72.00;;;;;;5020751;28;20086;-74
2023/07/09 02:07:55;;;;;;;8.20;5.25;;;27.20;72.90;;;;;;5054898;28;20074;-74
2023/07/09 02:10:21;;;;;;;7.35;5.60;;;27.10;73.80;;;;;;5054765;28;20036;-74
2023/07/09 02:12:47;;;;;;;7.03;5.18;;;27.10;74.10;;;;;;5054565;28;20025;-73
2023/07/09 02:15:14;;;;;;;7.72;5.45;;;27.10;73.80;;;;;;5054879;28;20107;-73
2023/07/09 02:17:40;;;;;;;7.75;4.97;;;27.10;73.70;;;;;;5054783;28;20039;-74
2023/07/09 02:20:07;;;;;;;7.45;4.90;;;27.00;74.10;;;;;;5054767;28;20361;-74
2023/07/09 02:22:34;;;;;;;7.13;5.35;;;27.00;74.50;;;;;;5054312;28;20037;-74
2023/07/09 02:24:59;;;;;;;5.88;4.30;;;27.00;74.50;;;;;;5054610;28;20405;-73
2023/07/09 02:27:25;;;;;;;6.78;5.05;;;27.00;74.20;;;;;;5054526;28;20037;-74
2023/07/09 02:29:51;;;;;;;7.03;4.75;;;27.00;73.80;;;;;;5054603;28;20037;-74
2023/07/09 02:32:28;;;;;;;5.35;4.38;;;27.00;73.60;;;;;;5054143;28;20032;-74
2023/07/09 02:34:55;;;;;;;6.63;4.30;;;26.90;73.50;;;;;;5054375;28;20116;-73
2023/07/09 02:37:24;;;;;;;6.32;4.78;;;26.90;73.50;;;;;;5036559;28;20037;-74
2023/07/09 02:39:50;;;;;;;4.57;3.90;;;26.90;73.10;;;;;;5054334;28;20051;-74
2023/07/09 02:42:18;;;;;;;7.00;4.72;;;26.80;72.80;;;;;;5054131;28;20442;-74
2023/07/09 02:44:44;;;;;;;6.47;4.35;;;26.90;72.90;;;;;;5036412;28;20029;-74
2023/07/09 02:47:11;;;;;;;6.57;4.88;;;26.90;72.90;;;;;;5036304;28;20029;-74
2023/07/09 02:49:37;;;;;;;4.82;4.32;;;26.90;72.70;;;;;;5053693;28;20378;-74
2023/07/09 02:52:04;;;;;;;6.22;4.60;;;26.90;72.70;;;;;;5054184;28;20150;-74
2023/07/09 02:54:29;;;;;;;7.10;4.50;;;26.90;72.50;;;;;;5054086;28;20033;-75
2023/07/09 02:56:55;;;;;;;8.77;4.80;;;26.90;72.40;;;;;;5003489;28;20389;-75
2023/07/09 02:59:21;;;;;;;5.60;4.20;;;26.80;72.20;;;;;;5053707;28;20047;-74
2023/07/09 03:01:47;;;;;;;5.25;3.85;;;26.80;72.10;;;;;;5035634;28;20029;-74
2023/07/09 03:04:14;;;;;;;4.82;3.92;;;26.80;72.10;;;;;;5036134;28;20134;-74
2023/07/09 03:06:40;;;;;;;4.82;3.80;;;26.90;72.00;;;;;;5053766;28;20025;-74
2023/07/09 03:09:06;;;;;;;5.53;4.32;;;26.80;71.80;;;;;;5035660;28;20025;-75
2023/07/09 03:11:34;;;;;;;5.07;3.85;;;26.80;71.90;;;;;;5053484;28;20033;-75
2023/07/09 03:14:00;;;;;;;7.03;4.65;;;26.80;71.90;;;;;;5053736;28;20028;-74
2023/07/09 03:16:28;;;;;;;7.97;4.50;;;26.80;71.80;;;;;;5053684;28;20031;-74
2023/07/09 03:18:54;;;;;;;5.05;3.90;;;26.80;71.90;;;;;;5053346;28;20075;-74
2023/07/09 03:21:21;;;;;;;6.97;4.50;;;26.80;71.90;;;;;;5053520;28;20531;-74
2023/07/09 03:23:46;;;;;;;6.82;4.90;;;26.80;71.90;;;;;;5053184;28;20396;-74
2023/07/09 03:26:12;;;;;;;9.15;5.00;;;26.80;72.00;;;;;;5053241;28;20120;-74
2023/07/09 03:28:38;;;;;;;7.57;4.90;;;26.80;72.00;;;;;;5053395;28;20068;-74
2023/07/09 03:31:04;;;;;;;6.28;4.72;;;26.80;72.10;;;;;;5052729;28;20464;-74
2023/07/09 03:33:30;;;;;;;5.82;4.47;;;26.80;72.10;;;;;;5053254;28;20445;-74
2023/07/09 03:35:55;;;;;;;7.43;5.38;;;26.80;72.20;;;;;;5035677;28;20036;-75
2023/07/09 03:38:21;;;;;;;5.78;4.30;;;26.70;72.50;;;;;;5035500;28;20480;-74
2023/07/09 03:40:53;;;;;;;7.40;5.00;;;26.70;72.50;;;;;;5053120;28;20033;-74
2023/07/09 03:43:19;;;;;;;;;;;26.70;72.30;;;;;;5053672;28;20031;-75
2023/07/09 03:45:46;;;;;;;4.38;3.97;;;26.70;72.60;;;;;;5053142;28;20031;-75
2023/07/09 03:48:13;;;;;;;9.32;5.18;;;26.60;72.30;;;;;;5035528;28;20384;-75
2023/07/09 03:50:39;;;;;;;8.45;5.00;;;26.60;72.70;;;;;;5053253;28;20028;-74
2023/07/09 03:53:08;;;;;;;6.18;5.03;;;26.50;73.00;;;;;;5052241;28;20033;-74
2023/07/09 03:55:33;;;;;;;10.55;5.78;;;26.50;73.00;;;;;;5053180;28;20060;-74
2023/07/09 03:57:59;;;;;;;9.00;6.45;;;26.40;74.00;;;;;;5035251;28;20442;-74
2023/07/09 04:00:25;;;;;;;8.23;6.30;;;26.30;75.40;;;;;;5052851;28;20032;-74
2023/07/09 04:02:52;;;;;;;7.43;5.47;;;26.20;75.80;;;;;;5034916;28;20033;-74
2023/07/09 04:05:18;;;;;;;7.13;5.00;;;26.20;75.90;;;;;;5034958;28;20498;-74
2023/07/09 04:07:44;;;;;;;9.27;6.45;;;26.20;75.30;;;;;;5052742;28;20060;-74
2023/07/09 04:10:10;;;;;;;8.43;6.13;;;26.20;75.80;;;;;;5053400;28;20045;-74
2023/07/09 04:12:36;;;;;;;8.68;5.43;;;26.30;76.30;;;;;;5052988;28;20021;-74
2023/07/09 04:15:04;;;;;;;11.48;6.63;;;26.20;76.40;;;;;;5053136;28;20055;-74
2023/07/09 04:17:29;;;;;;;7.35;5.22;;;26.20;76.30;;;;;;5052735;28;20119;-74
2023/07/09 04:19:55;;;;;;;7.70;5.25;;;26.20;75.90;;;;;;5035154;28;20501;-74
2023/07/09 04:22:21;;;;;;;5.95;4.35;;;26.20;75.30;;;;;;5035093;28;20037;-74
2023/07/09 04:24:46;;;;;;;7.47;5.90;;;26.20;75.30;;;;;;5034850;28;20098;-74
2023/07/09 04:27:13;;;;;;;7.60;5.30;;;26.20;74.80;;;;;;5034806;28;20041;-74
2023/07/09 04:29:39;;;;;;;8.48;5.90;;;26.30;74.80;;;;;;5052383;28;20041;-74
2023/07/09 04:32:06;;;;;;;10.77;5.38;;;26.30;74.80;;;;;;5034825;28;20036;-74
2023/07/09 04:34:32;;;;;;;8.63;5.80;;;26.30;74.80;;;;;;5052689;28;20461;-74
2023/07/09 04:36:58;;;;;;;7.68;5.18;;;26.30;74.80;;;;;;5034970;28;20036;-74
2023/07/09 04:39:24;;;;;;;7.25;5.45;;;26.30;75.00;;;;;;5052582;28;20484;-74
2023/07/09 04:41:49;;;;;;;7.93;5.25;;;26.20;75.10;;;;;;5034919;28;20083;-74
2023/07/09 04:44:15;;;;;;;7.43;5.57;;;26.30;75.20;;;;;;5052773;28;20037;-74
2023/07/09 04:46:41;;;;;;;7.88;5.30;;;26.30;75.00;;;;;;5035070;28;20045;-74
2023/07/09 04:49:06;;;;;;;6.50;5.47;;;26.30;75.00;;;;;;5052522;28;20120;-74
2023/07/09 04:51:33;;;;;;;9.30;6.13;;;26.30;74.80;;;;;;5034693;28;20079;-74
2023/07/09 04:53:58;;;;;;;5.78;4.80;;;26.30;74.90;;;;;;5052350;28;20082;-74
2023/07/09 04:56:24;;;;;;;8.27;5.80;;;26.30;74.80;;;;;;5052386;28;20037;-74
2023/07/09 04:58:50;;;;;;;10.40;6.45;;;26.30;74.80;;;;;;5035009;28;20428;-74
2023/07/09 05:01:16;;;;;;;8.23;4.93;;;26.30;74.90;;;;;;5052128;28;20413;-74
2023/07/09 05:03:41;;;;;;;7.32;5.13;;;26.30;75.00;;;;;;5053012;28;20033;-74
2023/07/09 05:06:07;;;;;;;7.10;5.10;;;26.30;74.80;;;;;;5056259;28;20021;-74
2023/07/09 05:08:33;;;;;;;8.82;5.90;;;26.30;74.70;;;;;;5056266;28;20040;-74
2023/07/09 05:10:58;;;;;;;7.43;5.63;;;26.40;74.90;;;;;;5056167;28;20117;-73
2023/07/09 05:13:24;;;;;;;7.93;6.43;;;26.40;74.90;;;;;;5055815;28;20033;-73
2023/07/09 05:15:51;;;;;;;6.90;5.85;;;26.40;75.10;;;;;;5055855;28;20063;-74
2023/07/09 05:18:18;;;;;;;6.90;4.85;;;26.40;75.40;;;;;;5055747;28;20068;-73
2023/07/09 05:20:46;;;;;;;9.25;6.10;;;26.40;75.30;;;;;;5055904;28;20037;-73
2023/07/09 05:23:11;;;;;;;8.95;5.55;;;26.40;75.10;;;;;;5055840;28;20389;-73
2023/07/09 05:25:37;;;;;;;9.38;5.88;;;26.40;75.30;;;;;;5055929;28;20029;-74
2023/07/09 05:28:04;;;;;;;10.85;7.18;;;26.50;75.30;;;;;;5055549;28;20036;-73
2023/07/09 05:30:30;;;;;;;13.95;7.35;;;26.50;75.60;;;;;;5055602;28;20087;-74
2023/07/09 05:32:57;;;;;;;8.23;5.72;;;26.50;76.30;;;;;;5055433;28;20028;-73
2023/07/09 05:35:25;;;;;;;9.93;6.95;;;26.50;76.40;;;;;;5055411;28;20583;-73
2023/07/09 05:37:52;;;;;;;7.80;6.30;;;26.50;76.20;;;;;;5055619;28;20037;-74
2023/07/09 05:40:17;;;;;;;9.52;6.50;;;26.50;76.50;;;;;;5055681;28;20029;-73
2023/07/09 05:42:43;;;;;;;8.68;6.35;;;26.50;76.80;;;;;;5055323;28;20082;-74
2023/07/09 05:45:09;;;;;;;10.60;6.53;;;26.60;76.70;;;;;;5055245;28;20033;-73
2023/07/09 05:47:35;;;;;;;9.00;6.90;;;26.60;76.90;;;;;;5055065;28;20501;-73
2023/07/09 05:50:00;;;;;;;7.72;6.20;;;26.60;76.90;;;;;;5055112;28;20041;-74
2023/07/09 05:52:29;;;;;;;10.35;6.53;;;26.60;76.80;;;;;;5054964;28;20033;-73
2023/07/09 05:54:55;;;;;;;9.18;6.63;;;26.60;76.30;;;;;;5055398;28;20120;-74
2023/07/09 05:57:21;;;;;;;11.18;6.90;;;26.70;76.00;;;;;;5055354;28;20056;-74
2023/07/09 05:59:47;;;;;;;8.23;6.82;;;26.70;76.10;;;;;;5055193;28;20496;-73
2023/07/09 06:02:14;;;;;;;10.40;6.40;;;26.70;76.20;;;;;;5054637;28;20033;-74
2023/07/09 06:04:41;;;;;;;7.53;5.85;;;26.80;76.70;;;;;;5037280;28;20330;-73
2023/07/09 06:07:08;;;;;;;8.30;5.90;;;26.80;76.60;;;;;;5054878;28;20461;-73
2023/07/09 06:09:35;;;;;;;6.50;5.72;;;26.80;76.20;;;;;;5054838;28;20048;-74
2023/07/09 06:12:01;;;;;;;8.15;6.30;;;26.90;76.00;;;;;;5020650;28;20436;-73
2023/07/09 06:14:27;;;;;;;15.52;8.15;;;26.90;76.10;;;;;;5055150;28;20102;-73
2023/07/09 06:16:53;;;;;;;11.98;7.50;;;27.00;76.70;;;;;;5053948;28;20457;-74
2023/07/09 06:19:18;;;;;;;12.75;8.27;;;26.90;76.90;;;;;;5054973;28;20499;-74
2023/07/09 06:21:44;;;;;;;12.68;8.80;;;26.90;77.20;;;;;;5054694;28;20362;-74
2023/07/09 06:24:10;;;;;;;15.68;9.40;;;26.90;77.60;;;;;;5020323;28;20048;-74
2023/07/09 06:26:36;;;;;;;13.77;9.32;;;26.80;78.20;;;;;;5036733;28;20480;-75
2023/07/09 06:29:02;;;;;;;11.98;8.70;;;26.70;78.40;;;;;;5054464;28;20075;-74
2023/07/09 06:31:28;;;;;;;11.73;8.95;;;26.70;78.50;;;;;;5054407;28;20028;-74
2023/07/09 06:33:53;;;;;;;9.25;7.35;;;26.80;78.60;;;;;;5054799;28;20029;-74
2023/07/09 06:36:19;;;;;;;14.98;9.15;;;26.90;79.00;;;;;;5020358;28;20477;-73
2023/07/09 06:38:46;;;;;;;12.05;8.60;;;27.10;79.20;;;;;;5054329;28;20033;-74
2023/07/09 06:41:12;;;;;;;10.25;8.68;;;27.10;79.10;;;;;;5036654;28;20043;-74
2023/07/09 06:43:38;;;;;;;12.88;9.48;;;27.10;78.90;;;;;;5036566;28;20568;-74
2023/07/09 06:46:05;;;;;;;12.60;8.05;;;27.20;79.00;;;;;;5054236;28;20083;-74
2023/07/09 06:48:32;;;;;;;10.15;7.93;;;27.20;79.10;;;;;;5036338;28;20037;-74
2023/07/09 06:50:59;;;;;;;9.82;7.40;;;27.30;78.90;;;;;;5054246;28;20100;-74
2023/07/09 06:53:25;;;;;;;12.18;8.13;;;27.40;79.00;;;;;;5053977;28;20461;-75
2023/07/09 06:55:55;;;;;;;12.52;8.70;;;27.50;79.20;;;;;;5053965;28;20056;-74
2023/07/09 06:58:21;;;;;;;12.38;7.50;;;27.60;80.00;;;;;;5053912;28;20068;-74
2023/07/09 07:00:49;;;;;;;12.95;8.20;;;27.70;80.50;;;;;;5054160;28;20033;-74
2023/07/09 07:03:15;;;;;;;12.20;8.25;;;27.70;80.50;;;;;;5053324;28;20029;-75
2023/07/09 07:05:46;;;;;;;14.40;8.18;;;27.70;80.00;;;;;;5054153;28;20068;-74
2023/07/09 07:08:15;;;;;;;10.27;7.55;;;27.70;79.10;;;;;;5053940;28;20044;-73
2023/07/09 07:10:41;;;;;;;10.52;7.38;;;27.70;79.20;;;;;;5053732;28;20029;-74
2023/07/09 07:13:07;;;;;;;10.18;7.38;;;27.70;79.70;;;;;;5053513;28;20025;-74
2023/07/09 07:15:32;;;;;;;13.30;7.00;;;27.80;80.50;;;;;;5053980;28;20358;-74
2023/07/09 07:17:58;;;;;;;9.90;7.20;;;27.90;81.00;;;;;;5053833;28;20036;-74
2023/07/09 07:20:24;;;;;;;11.02;7.45;;;27.90;81.20;;;;;;5053235;28;20032;-74
2023/07/09 07:22:49;;;;;;;9.27;7.32;;;28.00;81.20;;;;;;5035995;28;20036;-74
2023/07/09 07:25:15;;;;;;;9.55;6.75;;;28.00;80.90;;;;;;5053210;28;20053;-74
2023/07/09 07:27:41;;;;;;;13.85;7.32;;;28.00;80.60;;;;;;5053107;28;20094;-74
2023/07/09 07:30:11;;;;;;;11.68;7.15;;;28.00;81.20;;;;;;5035393;28;20029;-74
2023/07/09 07:32:44;;;;;;;15.95;8.15;;;27.90;80.80;;;;;;5053060;28;20025;-74
2023/07/09 07:35:10;;;;;;;10.98;6.55;;;28.00;80.20;;;;;;5052882;28;20031;-74
2023/07/09 07:37:36;;;;;;;9.02;6.35;;;28.00;81.00;;;;;;5019183;28;20033;-74
2023/07/09 07:40:02;;;;;;;9.00;6.68;;;28.10;83.00;;;;;;5053105;28;20029;-74
2023/07/09 07:42:28;;;;;;;8.73;5.90;;;28.20;81.00;;;;;;5053270;28;20040;-74
2023/07/09 07:44:53;;;;;;;10.75;6.22;;;28.30;79.30;;;;;;5053629;28;20037;-74
2023/07/09 07:47:19;;;;;;;10.93;6.45;;;28.40;78.30;;;;;;5053038;28;20029;-74
2023/07/09 07:49:45;;;;;;;7.97;5.57;;;28.40;79.00;;;;;;5053225;28;20107;-73
2023/07/09 07:52:11;;;;;;;11.98;6.50;;;28.60;79.10;;;;;;5053011;28;20121;-74
2023/07/09 07:54:36;;;;;;;10.55;6.75;;;28.70;78.70;;;;;;5018565;28;20499;-74
2023/07/09 07:57:02;;;;;;;10.32;7.00;;;28.80;79.30;;;;;;5053141;28;20036;-74
2023/07/09 07:59:29;;;;;;;10.18;6.22;;;28.90;79.40;;;;;;5035155;28;20033;-74
2023/07/09 08:01:55;;;;;;;9.77;6.38;;;28.90;79.50;;;;;;5052449;28;20067;-74
2023/07/09 08:04:20;;;;;;;9.77;5.57;;;29.00;80.20;;;;;;5052795;28;20056;-74
2023/07/09 08:06:46;;;;;;;15.38;7.20;;;29.10;80.00;;;;;;5052930;28;20029;-74
2023/07/09 08:09:12;;;;;;;10.73;7.38;;;29.10;81.00;;;;;;5035086;28;20091;-73
2023/07/09 08:11:37;;;;;;;12.32;7.10;;;29.20;80.40;;;;;;5052715;28;20212;-74
2023/07/09 08:14:03;;;;;;;9.98;7.15;;;29.20;79.80;;;;;;5052630;28;20183;-74
2023/07/09 08:16:29;;;;;;;11.48;7.05;;;29.30;79.50;;;;;;5052756;28;20036;-74
2023/07/09 08:18:55;;;;;;;11.07;7.10;;;29.30;78.60;;;;;;5052628;28;20040;-75
2023/07/09 08:21:21;;;;;;;11.15;6.80;;;29.40;79.80;;;;;;5052814;28;20025;-74
2023/07/09 08:23:47;;;;;;;10.18;6.20;;;29.40;79.30;;;;;;5052644;28;20152;-74
2023/07/09 08:26:13;;;;;;;10.00;6.57;;;29.50;79.70;;;;;;5052481;28;20132;-74
2023/07/09 08:28:39;;;;;;;8.55;6.32;;;29.50;80.00;;;;;;5052382;28;20454;-73
2023/07/09 08:31:05;;;;;;;10.13;6.22;;;29.60;79.20;;;;;;5052272;28;20079;-74
2023/07/09 08:33:31;;;;;;;11.40;6.30;;;29.70;76.50;;;;;;5034704;28;20029;-74
2023/07/09 08:35:57;;;;;;;11.10;6.60;;;29.80;75.60;;;;;;5052261;28;20538;-74
2023/07/09 08:38:23;;;;;;;9.40;5.78;;;29.80;75.10;;;;;;5052248;28;20124;-74
2023/07/09 08:41:00;;;;;;;9.05;5.95;;;29.90;77.40;;;;;;5056627;28;20036;-73
2023/07/09 08:43:28;;;;;;;10.07;5.95;;;30.00;78.20;;;;;;5056504;28;20461;-74
2023/07/09 08:46:03;;;;;;;9.50;6.25;;;30.10;79.40;;;;;;5056486;28;20117;-74
2023/07/09 08:48:39;;;;;;;9.93;6.75;;;30.10;77.80;;;;;;5056300;28;20423;-74
2023/07/09 08:51:29;;;;;;;10.85;6.30;;;30.20;75.30;;;;;;5038106;28;20029;-74
2023/07/09 08:53:58;;;;;;;8.40;6.10;;;30.20;75.90;;;;;;5056514;28;20083;-75
2023/07/09 08:56:26;;;;;;;11.18;6.13;;;30.30;74.50;;;;;;5056443;28;20473;-75
2023/07/09 08:58:56;;;;;;;10.93;6.00;;;30.30;73.90;;;;;;5056281;28;20044;-75
2023/07/09 09:01:33;;;;;;;9.90;5.80;;;30.40;71.50;;;;;;5055704;28;20083;-74
2023/07/09 09:04:09;;;;;;;6.95;5.68;;;30.30;71.80;;;;;;5039337;28;20016;-75
2023/07/09 09:06:35;;;;;;;12.63;6.00;;;30.30;73.10;;;;;;5055935;28;20059;-75
2023/07/09 09:10:00;;;;;;;6.88;5.63;;;30.40;73.10;;;;;;5056068;28;20061;-74
2023/07/09 09:12:48;;;;;;;10.43;6.00;;;30.60;74.60;;;;;;4967456;28;20042;-74
2023/07/09 09:15:20;;;;;;;9.20;5.90;;;30.70;76.40;;;;;;5037685;28;20025;-75
2023/07/09 09:17:52;;;;;;;7.88;5.70;;;30.80;73.40;;;;;;5055957;28;20100;-74
2023/07/09 09:20:24;;;;;;;7.32;5.25;;;30.80;73.20;;;;;;5056292;28;20029;-75
2023/07/09 09:23:08;;;;;;;8.95;5.90;;;31.00;73.20;;;;;;5037991;28;20098;-75
2023/07/09 09:25:39;;;;;;;9.75;5.72;;;31.00;71.20;;;;;;5055413;28;20067;-74
2023/07/09 09:28:04;;;;;;;8.00;6.27;;;31.10;73.00;;;;;;5055302;28;20539;-74
2023/07/09 09:30:30;;;;;;;9.85;6.18;;;31.20;71.20;;;;;;5055083;28;20272;-75
2023/07/09 09:32:58;;;;;;;13.20;5.65;;;31.20;70.10;;;;;;5055167;28;20027;-74
2023/07/09 09:35:33;;;;;;;7.70;5.50;;;31.20;70.50;;;;;;5055161;28;20029;-76
2023/07/09 09:37:59;;;;;;;8.27;5.70;;;31.30;72.00;;;;;;5055399;28;20112;-75
2023/07/09 09:40:28;;;;;;;10.77;5.10;;;31.30;70.50;;;;;;5055540;28;20033;-75
2023/07/09 09:42:56;;;;;;;7.72;4.93;;;31.40;69.90;;;;;;5055341;28;20031;-75
2023/07/09 09:45:32;;;;;;;10.73;5.03;;;31.40;69.30;;;;;;5055540;28;20052;-74
2023/07/09 09:48:01;;;;;;;6.45;4.78;;;31.50;69.50;;;;;;5038321;28;20029;-75
2023/07/09 09:50:32;;;;;;;5.60;4.75;;;31.60;69.40;;;;;;5054206;28;20103;-75
2023/07/09 09:53:01;;;;;;;6.88;4.78;;;31.80;70.30;;;;;;5055576;28;20075;-75
2023/07/09 09:55:32;;;;;;;7.95;4.90;;;31.80;69.40;;;;;;5055226;28;20021;-75
2023/07/09 09:57:58;;;;;;;7.15;4.75;;;31.80;68.80;;;;;;5055197;28;20025;-75
2023/07/09 10:00:26;;;;;;;7.15;5.00;;;31.90;69.50;;;;;;5055176;28;20037;-75
2023/07/09 10:03:00;;;;;;;8.18;5.60;;;31.90;69.00;;;;;;5054502;28;20037;-75
2023/07/09 10:05:34;;;;;;;8.02;5.18;;;32.00;68.70;;;;;;5036976;28;20409;-75
2023/07/09 10:08:13;;;;;;;9.75;5.40;;;32.00;68.30;;;;;;5054732;28;20104;-75
2023/07/09 10:10:42;;;;;;;9.85;5.35;;;32.00;70.50;;;;;;5037117;28;20040;-75
2023/07/09 10:13:22;;;;;;;5.82;4.60;;;32.10;70.70;;;;;;5055166;28;20029;-75
2023/07/09 10:16:09;;;;;;;9.55;4.70;;;32.20;70.10;;;;;;5054997;28;20115;-74
2023/07/09 10:18:48;;;;;;;8.40;4.93;;;32.30;67.40;;;;;;5054614;28;20028;-75
2023/07/09 10:21:15;;;;;;;11.55;5.35;;;32.40;70.70;;;;;;5054397;28;20060;-75
2023/07/09 10:24:08;;;;;;;9.18;4.78;;;32.50;70.10;;;;;;5036394;28;20040;-74
2023/07/09 10:27:00;;;;;;;6.88;4.45;;;32.60;67.10;;;;;;5054426;28;20080;-74
2023/07/09 10:30:11;;;;;;;8.73;5.40;;;32.60;65.90;;;;;;5054561;28;20035;-74
2023/07/09 10:33:02;;;;;;;5.93;4.32;;;32.70;66.00;;;;;;5035379;28;20083;-75
2023/07/09 10:35:45;;;;;;;6.53;4.10;;;32.80;66.70;;;;;;5054495;28;20071;-75
2023/07/09 10:38:19;;;;;;;8.07;4.93;;;32.80;67.40;;;;;;5054777;28;20115;-75
2023/07/09 10:40:57;;;;;;;7.32;4.50;;;33.00;67.80;;;;;;5036655;28;20028;-75
2023/07/09 10:43:49;;;;;;;6.68;4.30;;;33.10;67.50;;;;;;5054284;28;20025;-75
2023/07/09 10:46:20;;;;;;;9.38;4.68;;;33.10;67.70;;;;;;5054089;28;20025;-75
2023/07/09 10:48:55;;;;;;;7.88;4.38;;;33.10;64.50;;;;;;5054340;28;20035;-74
2023/07/09 10:51:47;;;;;;;4.93;3.88;;;33.20;66.20;;;;;;5054186;28;20029;-75
2023/07/09 10:55:10;;;;;;;6.38;4.47;;;33.20;63.80;;;;;;5039800;28;20056;-75
2023/07/09 10:57:48;;;;;;;5.20;3.67;;;33.30;63.20;;;;;;4972789;28;20023;-75
2023/07/09 11:00:20;;;;;;;7.47;4.22;;;33.40;64.00;;;;;;4973044;28;20031;-75
2023/07/09 11:02:52;;;;;;;4.75;3.75;;;33.40;63.40;;;;;;5019571;28;20033;-75
2023/07/09 11:05:18;;;;;;;7.38;3.90;;;33.40;61.70;;;;;;5054081;28;20461;-75
2023/07/09 11:07:50;;;;;;;6.00;3.63;;;33.50;62.70;;;;;;5053777;28;20058;-75
2023/07/09 11:10:31;;;;;;;7.90;3.83;;;33.50;62.60;;;;;;5053752;28;20021;-75
2023/07/09 11:13:09;;;;;;;7.65;4.07;;;33.60;61.20;;;;;;5053395;28;20125;-75
2023/07/09 11:15:41;;;;;;;7.43;4.13;;;33.70;63.10;;;;;;5053871;28;20029;-75
2023/07/09 11:18:11;;;;;;;8.30;3.88;;;33.70;61.60;;;;;;5053796;28;20036;-75
2023/07/09 11:20:43;;;;;;;7.57;4.50;;;33.80;62.60;;;;;;5053797;28;20032;-74
2023/07/09 11:23:24;;;;;;;7.05;4.43;;;33.80;62.10;;;;;;5035913;28;20021;-75
2023/07/09 11:26:12;;;;;;;6.13;3.90;;;33.70;61.40;;;;;;5053757;28;20457;-75
2023/07/09 11:28:40;;;;;;;8.98;4.78;;;33.70;62.30;;;;;;5053441;28;20079;-75
2023/07/09 11:31:08;;;;;;;5.78;4.28;;;33.80;63.20;;;;;;5052969;28;20484;-75
2023/07/09 11:33:44;;;;;;;5.45;4.00;;;33.70;63.50;;;;;;5053379;28;20090;-74
2023/07/09 11:36:14;;;;;;;5.22;4.45;;;33.80;64.60;;;;;;5053124;28;20032;-74
2023/07/09 11:38:42;;;;;;;5.88;3.63;;;33.80;63.20;;;;;;5019290;28;20370;-74
2023/07/09 11:41:45;;;;;;;7.65;4.03;;;33.90;62.00;;;;;;5053294;28;20028;-74
2023/07/09 11:44:23;;;;;;;9.00;3.70;;;33.90;61.90;;;;;;5052940;28;20025;-75
2023/07/09 11:47:23;;;;;;;5.60;3.85;;;34.00;63.80;;;;;;5053251;28;20475;-75
2023/07/09 11:50:00;;;;;;;6.13;4.15;;;34.00;65.50;;;;;;5053156;28;20029;-75
2023/07/09 11:52:51;;;;;;;7.43;4.03;;;34.00;62.00;;;;;;5053258;28;20363;-74
2023/07/09 11:55:38;;;;;;;5.82;4.00;;;34.00;61.60;;;;;;5053163;28;20032;-74
2023/07/09 11:58:05;;;;;;;8.07;4.20;;;33.90;61.30;;;;;;5053188;28;20396;-75
2023/07/09 12:00:51;;;;;;;4.57;3.50;;;33.90;62.90;;;;;;5053253;28;20430;-75
2023/07/09 12:03:24;;;;;;;9.23;3.67;;;33.90;61.00;;;;;;5034798;28;20040;-74
2023/07/09 12:05:55;;;;;;;4.78;3.70;;;33.90;62.10;;;;;;5052909;28;20036;-74
2023/07/09 12:08:29;;;;;;;7.93;4.00;;;33.90;63.80;;;;;;5052571;28;20033;-74
2023/07/09 12:10:55;;;;;;;6.70;3.97;;;33.80;63.30;;;;;;5052971;28;20025;-74
2023/07/09 12:13:20;;;;;;;6.25;3.85;;;33.80;63.10;;;;;;5052028;28;20389;-75
2023/07/09 12:15:46;;;;;;;5.43;3.78;;;33.70;62.90;;;;;;5035340;28;20028;-74
2023/07/09 12:18:14;;;;;;;6.43;4.13;;;33.70;63.20;;;;;;5035362;28;20028;-74
2023/07/09 12:20:43;;;;;;;5.88;3.90;;;33.60;62.90;;;;;;5052824;28;20033;-74
2023/07/09 12:23:18;;;;;;;6.70;3.13;;;33.50;62.50;;;;;;5052812;28;20060;-74
2023/07/09 12:25:49;;;;;;;7.95;3.50;;;33.50;64.50;;;;;;5053020;28;20083;-74
2023/07/09 12:28:15;;;;;;;6.60;4.15;;;33.40;63.10;;;;;;5052587;28;20029;-74
2023/07/09 12:30:49;;;;;;;8.23;4.45;;;33.30;62.60;;;;;;5034972;28;20082;-74
2023/07/09 12:33:26;;;;;;;6.90;3.70;;;33.30;63.10;;;;;;5052518;28;20059;-74
2023/07/09 12:36:05;;;;;;;6.35;3.33;;;33.20;62.40;;;;;;5053024;28;20024;-75
2023/07/09 12:38:44;;;;;;;5.53;3.65;;;33.10;63.40;;;;;;5052964;28;20128;-74
2023/07/09 12:41:25;;;;;;;5.57;3.67;;;33.00;64.10;;;;;;5052961;28;20029;-75
2023/07/09 12:43:56;;;;;;;7.95;3.63;;;32.90;63.40;;;;;;5034732;28;20025;-75
2023/07/09 12:46:23;;;;;;;5.65;3.72;;;32.80;64.10;;;;;;5052930;28;20045;-75
2023/07/09 12:48:52;;;;;;;8.55;3.72;;;32.80;64.70;;;;;;5052495;28;20123;-75
2023/07/09 12:51:29;;;;;;;9.02;3.75;;;32.70;65.00;;;;;;5052797;28;20492;-74
2023/07/09 12:54:16;;;;;;;8.23;3.75;;;32.70;64.90;;;;;;5052770;28;20059;-74
2023/07/09 12:56:42;;;;;;;7.05;3.85;;;32.70;65.40;;;;;;5034850;28;20036;-75
2023/07/09 12:59:18;;;;;;;8.93;4.40;;;32.70;65.60;;;;;;5052436;28;20041;-75